• Join FlightAware (Why Join?)
  • Login
  • US Flag 
01:21AM EDT


 

Airport Tracker/Info


-or-


 

Live Flight TrackerFlight Track Log ✈ CES736 ✈ 29-Jun-2013 ✈ YSSY / SYD - ZSPD / PVG

Flight Track Log - Related Links

Times and Time Zones

All times are in EDT time to prevent confusion due to time zone crossing. See the CES736 flight status page for this flight to view local times or setup timezone preferences in your user account.

Time Position Orientation Groundspeed Altitude Reporting Facility
EDT Latitude Longitude Course Direction KTS MPH feet Rate Location/Type
06:37AM -33.9390 151.1680 163° South 2 2  Level FlightAware
06:42AM -33.9400 151.1700 121° Southeast 10 12  Level FlightAware
06:43AM -33.9390 151.1720 59° Northeast 8 9 60 Level FlightAware
06:43AM -33.9370 151.1720 360° North 11 13 60 Level FlightAware
06:44AM -33.9350 151.1710 337° Northwest 14 16 60 Level FlightAware
06:44AM -33.9340 151.1710 360° North 12 14 60 Level FlightAware
06:45AM -33.9330 151.1700 320° Northwest 9 10 60 Level FlightAware
06:45AM -33.9320 151.1690 320° Northwest 11 13 60 Level FlightAware
06:45AM -33.9310 151.1690 360° North 11 13 60 Level FlightAware
06:46AM -33.9300 151.1700 40° Northeast 4 5 60 Level FlightAware
06:49AM -33.7307 150.9349 316° Northwest  Level FlightAware Approximate
06:49AM -33.9300 151.1710 316° Northwest 7 8  Level FlightAware
06:49AM -33.9300 151.1720 90° East 4 5 300 Level FlightAware
06:50AM -33.9360 151.1730 172° South 96 110 420 Level FlightAware
06:51AM -33.9590 151.1790 168° South 180 207 780 Level FlightAware
06:51AM -33.9720 151.1820 169° South 166 191 600 2,520 Climbing FlightAware
06:51AM -33.9910 151.1800 185° South 168 193 1,700 2,160 Climbing FlightAware
06:52AM -34.0150 151.1760 188° South 165 190 2,600 1,200 Climbing FlightAware
06:52AM -34.0480 151.1800 174° South 205 236 3,100 1,140 Climbing FlightAware
06:53AM -34.0930 151.1960 164° South 249 287 4,300 1,920 Climbing FlightAware
06:54AM -34.1260 151.2080 163° South 261 300 5,400 2,520 Climbing FlightAware
06:54AM -34.1480 151.2150 165° South 265 305 6,200 2,400 Climbing FlightAware
06:54AM -34.1600 151.2160 176° South 274 315 6,600 2,160 Climbing FlightAware
06:54AM -34.1810 151.2060 202° Southwest 286 329 7,100 2,700 Climbing FlightAware
06:55AM -34.1970 151.1750 238° Southwest 279 321 8,400 2,760 Climbing FlightAware
06:55AM -34.1920 151.1380 238° Southwest 281 323 9,400 3,060 Climbing FlightAware
06:55AM -34.1867 151.1278 238° Southwest 273 314 10,000 1,980 Climbing Aus ATC (RADAR)
06:56AM -34.1620 151.1090 238° Southwest 294 338 10,400 1,920 Climbing FlightAware
06:56AM -34.1585 151.1064 238° Southwest 274 315 10,800 1,500 Climbing Aus ATC (RADAR)
06:56AM -34.1213 151.0781 238° Southwest 304 350 11,200 540 Climbing Aus ATC (RADAR)
06:57AM -34.1020 151.0630 238° Southwest 343 395 11,200 1,200 Level FlightAware
06:57AM -34.0390 151.0150 328° Northwest 367 422 12,400 1,860 Climbing FlightAware
06:58AM -33.9810 150.9740 330° Northwest 375 432 13,900 2,220 Climbing FlightAware
06:59AM -33.9160 150.9400 337° Northwest 383 441 15,400 2,280 Climbing FlightAware
06:59AM -33.8476 150.9048 337° Northwest 374 430 17,000 1,860 Climbing Aus ATC (RADAR)
06:59AM -33.8440 150.9030 337° Northwest 392 451 16,800 1,800 Descending FlightAware
07:00AM -33.7798 150.8701 337° Northwest 385 443 18,200 1,740 Climbing Aus ATC (RADAR)
07:00AM -33.7710 150.8650 337° Northwest 403 464 18,100 1,680 Descending FlightAware
07:00AM -33.7290 150.8440 337° Northwest 401 461 19,100 2,040 Climbing FlightAware
07:01AM -33.6480 150.8030 337° Northwest 409 471 20,500 2,100 Climbing FlightAware
07:02AM -33.5898 150.7696 337° Northwest 396 456 21,900 1,800 Climbing Aus ATC (RADAR)
07:02AM -33.5820 150.7600 337° Northwest 414 476 21,700 1,140 Descending FlightAware
07:03AM -33.5190 150.6860 316° Northwest 420 483 22,900 1,500 Climbing FlightAware
07:03AM -33.4620 150.6200 316° Northwest 427 491 23,900 1,500 Climbing FlightAware
07:04AM -33.4050 150.5540 316° Northwest 432 497 24,900 1,380 Climbing FlightAware
07:05AM -33.3470 150.4870 316° Northwest 437 503 25,800 1,800 Climbing FlightAware
07:05AM -33.3426 150.4819 316° Northwest 420 483 26,200 1,680 Climbing Aus ATC (RADAR)
07:05AM -33.2912 150.4230 316° Northwest 427 491 26,900 900 Climbing Aus ATC (RADAR)
07:06AM -33.2280 150.3720 316° Northwest 445 512 27,300 1,080 Climbing FlightAware
07:06AM -33.1698 150.3298 316° Northwest 434 499 28,200 960 Climbing Aus ATC (RADAR)
07:07AM -33.1330 150.3020 316° Northwest 453 521 28,200 900 Level FlightAware
07:07AM -33.0616 150.2506 316° Northwest 444 511 29,100 900 Climbing Aus ATC (RADAR)
07:07AM -33.0570 150.2470 316° Northwest 458 527 28,800 1,020 Descending FlightAware
07:08AM -32.9982 150.2042 316° Northwest 447 514 29,700 1,080 Climbing Aus ATC (RADAR)
07:08AM -32.9470 150.1680 316° Northwest 455 524 29,900 1,020 Climbing FlightAware
07:09AM -32.8740 150.1140 316° Northwest 455 524 30,900 1,980 Climbing FlightAware
07:09AM -32.8708 150.1121 316° Northwest 446 513 31,300 1,020 Climbing Aus ATC (RADAR)
07:10AM -32.8020 150.0630 316° Northwest 453 521 31,600 1,020 Climbing FlightAware
07:10AM -32.7990 150.0605 316° Northwest 442 509 32,000 2,220 Climbing Aus ATC (RADAR)
07:10AM -32.7369 150.0157 316° Northwest 435 501 32,900 900 Climbing Aus ATC (RADAR)
07:10AM -32.7310 150.0110 316° Northwest 438 504 32,600 1,020 Descending FlightAware
07:11AM -32.6754 149.9712 316° Northwest 434 499 33,500 1,020 Climbing Aus ATC (RADAR)
07:11AM -32.6350 149.9420 329° Northwest 435 501 33,600 1,020 Climbing FlightAware
07:12AM -32.6142 149.9275 329° Northwest 431 496 34,100 1,260 Climbing Aus ATC (RADAR)
07:12AM -32.5613 149.8894 329° Northwest 433 498 34,400 120 Climbing Aus ATC (RADAR)
07:12AM -32.5550 149.8850 329° Northwest 435 501 34,200 900 Descending FlightAware
07:13AM -32.4915 149.8393 329° Northwest 431 496 35,000 900 Climbing Aus ATC (RADAR)
07:13AM -32.4850 149.8340 329° Northwest 432 497 34,800 660 Descending FlightAware
07:13AM -32.4328 149.7970 329° Northwest 437 503 35,400 420 Climbing Aus ATC (RADAR)
07:14AM -32.4130 149.7830 329° Northwest 436 502 35,100 -120 Descending FlightAware
07:14AM -32.3310 149.7240 329° Northwest 450 518 35,300 360 Climbing FlightAware
07:15AM -32.2540 149.6690 329° Northwest 451 519 35,700 480 Climbing FlightAware
07:16AM -32.1900 149.6240 329° Northwest 438 504 36,000 480 Climbing FlightAware
07:16AM -32.1292 149.5809 329° Northwest 434 499 36,300  Climbing Aus ATC (RADAR)
07:16AM -32.1160 149.5710 329° Northwest 431 496 36,000 -360 Descending FlightAware
07:17AM -32.0400 149.5170 329° Northwest 434 499 36,000  Level FlightAware
07:18AM -31.9710 149.4690 329° Northwest 431 496 36,000  Level FlightAware
07:18AM -31.8940 149.4140 329° Northwest 432 497 36,000 360 Level FlightAware
07:18AM -31.8886 149.4106 329° Northwest 425 489 36,300  Climbing Aus ATC (RADAR)
07:19AM -31.8250 149.3660 329° Northwest 432 497 36,000 -180 Descending FlightAware
07:19AM -31.8220 149.3638 329° Northwest 432 497 36,200 480 Climbing Aus ATC (RADAR)
07:20AM -31.7603 149.3204 329° Northwest 421 484 36,300 -300 Climbing Aus ATC (RADAR)
07:20AM -31.7500 149.3130 329° Northwest 420 483 36,000 -420 Descending FlightAware
07:21AM -31.6810 149.2640 329° Northwest 418 481 36,000  Level FlightAware
07:21AM -31.6020 149.2090 329° Northwest 416 479 36,000  Level FlightAware
07:22AM -31.5350 149.1620 329° Northwest 415 478 36,000 240 Level FlightAware
07:23AM -31.4740 149.1199 329° Northwest 414 476 36,300  Climbing Aus ATC (RADAR)
07:23AM -31.4680 149.1150 329° Northwest 413 475 36,000 -180 Descending FlightAware
07:23AM -31.4153 149.0788 329° Northwest 415 478 36,200  Climbing Aus ATC (RADAR)
07:23AM -31.3910 149.0620 329° Northwest 412 474 36,000 -240 Descending FlightAware
07:24AM -31.3260 149.0160 329° Northwest 411 473 36,000  Level FlightAware
07:25AM -31.2660 148.9750 330° Northwest 416 479 36,000  Level FlightAware
07:25AM -31.1930 148.9240 330° Northwest 415 478 36,000 240 Level FlightAware
07:25AM -31.1830 148.9173 330° Northwest 409 471 36,200 300 Climbing Aus ATC (RADAR)
07:26AM -31.1250 148.8775 330° Northwest 410 472 36,200 -300 Level Aus ATC (RADAR)
07:26AM -31.1170 148.8710 330° Northwest 415 478 36,000 120 Descending FlightAware
07:27AM -31.0589 148.8317 330° Northwest 409 471 36,300  Climbing Aus ATC (RADAR)
07:27AM -31.0490 148.8250 330° Northwest 414 476 36,000 -360 Descending FlightAware
07:28AM -30.9760 148.7740 329° Northwest 415 478 36,000  Level FlightAware
07:28AM -30.9100 148.7280 329° Northwest 415 478 36,000  Level FlightAware
07:29AM -30.8440 148.6820 329° Northwest 415 478 36,000  Level FlightAware
07:29AM -30.8040 148.6560 331° Northwest 414 476 36,000 240 Level FlightAware
07:30AM -30.7203 148.5992 331° Northwest 407 468 36,300 120 Climbing Aus ATC (RADAR)
07:31AM -30.6543 148.5539 329° Northwest 407 468 36,200 -120 Descending Aus ATC (RADAR)
07:31AM -30.5970 148.5147 329° Northwest 406 467 36,200 60 Level Aus ATC (RADAR)
07:32AM -30.5072 148.4536 330° Northwest 404 465 36,300 60 Climbing Aus ATC (RADAR)
07:33AM -30.4422 148.4095 330° Northwest 402 463 36,300  Level Aus ATC (RADAR)
07:34AM -30.3860 148.3709 329° Northwest 399 459 36,300 -300 Level Aus ATC (RADAR)
07:34AM -30.4130 148.3830 329° Northwest 413 475 36,000  Descending FlightAware
07:35AM -30.2739 148.2944 329° Northwest 397 457 36,300 240 Climbing Aus ATC (RADAR)
07:35AM -30.2171 148.2567 330° Northwest 398 458 36,300  Level Aus ATC (RADAR)
07:36AM -30.1530 148.2129 329° Northwest 398 458 36,300  Level Aus ATC (RADAR)
07:36AM -30.1043 148.1804 330° Northwest 399 459 36,300  Level Aus ATC (RADAR)
07:37AM -30.0491 148.1421 329° Northwest 396 456 36,300  Level Aus ATC (RADAR)
07:38AM -29.9935 148.1029 329° Northwest 399 459 36,300  Level Aus ATC (RADAR)
07:38AM -29.9447 148.0581 322° Northwest 390 449 36,300  Level Aus ATC (RADAR)
07:39AM -29.8945 148.0147 323° Northwest 385 443 36,300  Level Aus ATC (RADAR)
07:39AM -29.8458 147.9709 322° Northwest 382 440 36,300 -540 Level Aus ATC (RADAR)
07:39AM -29.9740 148.0790 322° Northwest 413 475 36,000  Descending FlightAware
07:40AM -29.7969 147.9272 322° Northwest 380 437 36,300 240 Climbing Aus ATC (RADAR)
07:41AM -29.7406 147.8774 322° Northwest 380 437 36,300  Level Aus ATC (RADAR)
07:41AM -29.6901 147.8340 323° Northwest 381 438 36,300  Level Aus ATC (RADAR)
07:42AM -29.6049 147.7607 323° Northwest 380 437 36,300  Level Aus ATC (RADAR)
07:43AM -29.5516 147.7129 322° Northwest 379 436 36,300  Level Aus ATC (RADAR)
07:43AM -29.5070 147.6760 324° Northwest 374 430 36,300  Level Aus ATC (RADAR)
07:44AM -29.4572 147.6351 324° Northwest 374 430 36,300  Level Aus ATC (RADAR)
07:45AM -29.4088 147.5938 323° Northwest 371 427 36,300  Level Aus ATC (RADAR)
07:45AM -29.3603 147.5527 324° Northwest 370 426 36,300  Level Aus ATC (RADAR)
07:46AM -29.3084 147.5068 322° Northwest 368 423 36,300  Level Aus ATC (RADAR)
07:46AM -29.2655 147.4714 324° Northwest 363 418 36,300  Level Aus ATC (RADAR)
07:47AM -29.2187 147.4308 323° Northwest 361 415 36,300  Level Aus ATC (RADAR)
07:48AM -29.1656 147.3841 322° Northwest 360 414 36,300  Level Aus ATC (RADAR)
07:48AM -29.1210 147.3448 322° Northwest 362 417 36,300  Level Aus ATC (RADAR)
07:49AM -29.0750 147.3123 328° Northwest 361 415 36,300  Level Aus ATC (RADAR)
07:49AM -29.0349 147.2784 324° Northwest 360 414 36,300 -60 Level Aus ATC (RADAR)
07:55AM -28.5661 146.8822 324° Northwest 36,000 -60 Descending Aus ATC (Calculated)
07:57AM -28.3676 146.7830 323° Northwest  Level Estimated
07:58AM -28.2738 146.6993 322° Northwest  Level FlightAware Approximate
07:59AM -28.1799 146.6158 322° Northwest  Level FlightAware Approximate
08:00AM -28.0859 146.5324 322° Northwest  Level FlightAware Approximate
08:00AM -28.1255 146.5140 324° Northwest 36,000  Level Aus ATC (Calculated)
08:02AM -27.9490 146.3676 324° Northwest  Level FlightAware Approximate
08:03AM -27.8527 146.2880 324° Northwest  Level FlightAware Approximate
08:04AM -27.7563 146.2085 324° Northwest  Level FlightAware Approximate
08:05AM -27.6599 146.1291 324° Northwest  Level FlightAware Approximate
08:05AM -27.7005 146.1625 324° Northwest 36,000  Level Aus ATC (Calculated)
08:07AM -27.5236 146.0172 324° Northwest  Level FlightAware Approximate
08:08AM -27.4271 145.9382 324° Northwest  Level FlightAware Approximate
08:09AM -27.3305 145.8593 324° Northwest  Level FlightAware Approximate
08:10AM -27.2339 145.7805 324° Northwest  Level FlightAware Approximate
08:10AM -27.2213 145.7703 324° Northwest 36,000  Level Aus ATC (Calculated)
08:11AM -27.1850 145.7410 324° Northwest 383 441 36,000  Level FlightAware
08:12AM -27.0424 145.6250 324° Northwest  Level FlightAware Approximate
08:12AM -27.0786 145.6545 144° Southeast 36,000  Level Aus ATC (Calculated)
08:12AM -27.1050 145.6760 324° Northwest 382 440 36,000  Level FlightAware
08:13AM -27.0590 145.6380 324° Northwest 382 440 36,000  Level FlightAware
08:14AM -27.0130 145.6010 324° Northwest 382 440 36,000  Level FlightAware
08:14AM -26.9570 145.5550 324° Northwest 382 440 36,000  Level FlightAware
08:15AM -26.7078 145.3559 324° Northwest 36,000  Level Aus ATC (Calculated)
08:17AM -26.5752 145.2496 324° Northwest  Level FlightAware Approximate
08:17AM -26.6335 145.2963 324° Northwest 36,000  Level Aus ATC (Calculated)
08:19AM -26.4459 145.1464 324° Northwest  Level FlightAware Approximate
08:20AM -26.3488 145.0690 324° Northwest  Level FlightAware Approximate
08:20AM -26.3363 145.0591 324° Northwest 36,000  Level Aus ATC (Calculated)
08:21AM -26.2391 144.9819 325° Northwest  Level FlightAware Approximate
08:22AM -26.1419 144.9048 325° Northwest  Level FlightAware Approximate
08:22AM -26.1131 144.8819 145° Southeast 36,000  Level Aus ATC (Calculated)
08:23AM -26.1720 144.9280 325° Northwest 394 453 36,000  Level FlightAware
08:24AM -26.0920 144.8650 325° Northwest 392 451 36,000  Level FlightAware
08:24AM -26.0390 144.8230 325° Northwest 394 453 36,000  Level FlightAware
08:25AM -25.9780 144.7750 325° Northwest 394 453 36,000  Level FlightAware
08:25AM -25.8050 144.6387 145° Southeast 36,000  Level Aus ATC (Calculated)
08:26AM -25.9130 144.7230 325° Northwest 394 453 36,000  Level FlightAware
08:26AM -25.8410 144.6670 325° Northwest 393 452 36,000  Level FlightAware
08:27AM -25.7800 144.6190 325° Northwest 394 453 36,000  Level FlightAware
08:28AM -25.7210 144.5720 324° Northwest 396 456 36,000  Level FlightAware
08:29AM -25.6540 144.5200 325° Northwest 398 458 36,000  Level FlightAware
08:29AM -25.5930 144.4720 325° Northwest 399 459 36,000  Level FlightAware
08:30AM -25.5480 144.4370 325° Northwest 400 460 36,000  Level FlightAware
08:30AM -25.3798 144.3058 325° Northwest 36,000  Level Aus ATC (Calculated)
08:33AM -25.2798 144.2278 325° Northwest  Level FlightAware Approximate
08:34AM -25.1822 144.1519 325° Northwest  Level FlightAware Approximate
08:34AM -25.1310 144.1120 325° Northwest 402 463 36,000  Level FlightAware
08:35AM -25.0845 144.0762 325° Northwest  Level FlightAware Approximate
08:35AM -24.9005 143.9339 145° Southeast 36,000  Level Aus ATC (Calculated)
08:35AM -25.0480 144.0480 325° Northwest 402 463 36,000  Level FlightAware
08:36AM -24.9840 143.9980 325° Northwest 402 463 36,000  Level FlightAware
08:37AM -24.9170 143.9470 325° Northwest 403 464 36,000  Level FlightAware
08:37AM -24.8560 143.8990 324° Northwest 403 464 36,000  Level FlightAware
08:38AM -24.8000 143.8560 325° Northwest 403 464 36,000  Level FlightAware
08:39AM -24.7390 143.8090 325° Northwest 402 463 36,000  Level FlightAware
08:39AM -24.6650 143.7530 325° Northwest 402 463 36,000  Level FlightAware
08:40AM -24.4203 143.5650 145° Southeast 36,000  Level Aus ATC (Calculated)
08:40AM -24.5980 143.7010 325° Northwest 404 465 36,000  Level FlightAware
08:41AM -24.5400 143.6570 325° Northwest 405 466 36,000  Level FlightAware
08:41AM -24.4660 143.6000 325° Northwest 406 467 36,000  Level FlightAware
08:42AM -24.4040 143.5530 325° Northwest 406 467 36,000  Level FlightAware
08:43AM -24.3370 143.5010 325° Northwest 407 468 36,000  Level FlightAware
08:44AM -24.2740 143.4530 325° Northwest 407 468 36,000  Level FlightAware
08:44AM -24.0498 143.2827 145° Southeast 36,000  Level Aus ATC (Calculated)
08:44AM -24.2120 143.4060 325° Northwest 407 468 36,000  Level FlightAware
08:47AM -23.9865 143.2347 325° Northwest  Level FlightAware Approximate
08:48AM -23.8884 143.1604 325° Northwest  Level FlightAware Approximate
08:49AM -23.7903 143.0862 325° Northwest  Level FlightAware Approximate
08:49AM -23.5586 142.9116 146° Southeast 36,000  Level Aus ATC (Calculated)
08:49AM -23.7500 143.0550 325° Northwest 408 470 36,000  Level FlightAware
08:50AM -23.6740 142.9980 326° Northwest 410 472 36,000  Level FlightAware
08:51AM -23.5920 142.9360 325° Northwest 411 473 36,000  Level FlightAware
08:53AM -23.4220 142.8090 326° Northwest 411 473 36,000  Level FlightAware
08:53AM -23.3450 142.7520 326° Northwest 411 473 36,000  Level FlightAware
08:54AM -23.0665 142.5432 145° Southeast 36,000  Level Aus ATC (Calculated)
08:54AM -23.0665 142.5432 145° Southeast 36,000  Level Aus ATC (Calculated)
08:54AM -23.2800 142.7030 326° Northwest 411 473 36,000  Level FlightAware
08:56AM -23.1250 142.5870 325° Northwest 412 474 36,000  Level FlightAware
08:57AM -23.0590 142.5380 326° Northwest 413 475 36,000  Level FlightAware
08:57AM -22.9960 142.4910 326° Northwest 413 475 36,000  Level FlightAware
08:58AM -22.9270 142.4400 326° Northwest 412 474 36,000  Level FlightAware
08:59AM -22.5735 142.1774 146° Southeast 36,000  Level Aus ATC (Calculated)
08:59AM -22.8570 142.3870 325° Northwest 412 474 36,000  Level FlightAware
08:59AM -22.7920 142.3390 325° Northwest 414 476 36,000  Level FlightAware
09:00AM -22.5030 142.1254 326° Northwest 36,000  Level Aus ATC (Calculated)
09:02AM -22.3353 142.0019 326° Northwest  Level FlightAware Approximate
09:02AM -22.2208 141.9178 146° Southeast 36,000  Level Aus ATC (Calculated)
09:03AM -22.2367 141.9294 326° Northwest  Level FlightAware Approximate
09:03AM -22.4590 142.0930 326° Northwest 421 484 36,000  Level FlightAware
09:04AM -22.0810 141.8153 326° Northwest  Level FlightAware Approximate
09:04AM -22.0796 141.8143 146° Southeast 36,000  Level Aus ATC (Calculated)
09:04AM -22.3220 141.9920 326° Northwest 422 486 36,000  Level FlightAware
09:06AM -22.1180 141.8430 339° North 422 486 36,000  Level FlightAware
09:07AM -21.7779 141.6925 339° North  Level Estimated
09:07AM -22.0370 141.7820 325° Northwest 422 486 36,000  Level FlightAware
09:07AM -21.7134 141.5470 146° Southeast 36,000  Level Aus ATC (Calculated)
09:08AM -21.9460 141.7170 325° Northwest 423 487 36,000  Level FlightAware
09:09AM -21.8870 141.6740 326° Northwest 424 488 36,000  Level FlightAware
09:09AM -21.5359 141.4181 146° Southeast 36,000  Level Aus ATC (Calculated)
09:09AM -21.8130 141.6190 326° Northwest 424 488 36,000  Level FlightAware
09:11AM -21.6960 141.5340 326° Northwest 423 487 36,000  Level FlightAware
09:12AM -21.6040 141.4670 326° Northwest 421 484 36,000  Level FlightAware
09:12AM -21.5600 141.4360 327° Northwest 421 484 36,000  Level FlightAware
09:12AM -21.1806 141.1612 146° Southeast 36,000  Level Aus ATC (Calculated)
09:13AM -21.5090 141.3990 326° Northwest 421 484 36,000  Level FlightAware
09:13AM -21.4350 141.3450 326° Northwest 422 486 36,000  Level FlightAware
09:14AM -21.3690 141.2970 326° Northwest 422 486 36,000  Level FlightAware
09:14AM -21.3290 141.2680 326° Northwest 422 486 36,000  Level FlightAware
09:15AM -21.2840 141.2360 326° Northwest 422 486 36,000  Level FlightAware
09:16AM -21.1580 141.1420 325° Northwest 422 486 36,000 240 Level FlightAware
09:17AM -20.6469 140.7781 146° Southeast 36,000 360 Level Aus ATC (Calculated)
09:18AM -20.5875 140.7357 146° Southeast 36,000 480 Level Aus ATC (Calculated)
09:19AM -20.5361 140.6990 326° Northwest  Level FlightAware Approximate
09:20AM -20.4602 140.6449 326° Northwest  Level FlightAware Approximate
09:21AM -20.3610 140.5742 326° Northwest  Level FlightAware Approximate
09:21AM -20.7290 140.8370 326° Northwest 415 478 37,700  Level FlightAware
09:21AM -20.2312 140.4820 146° Southeast 36,000 480 Descending Aus ATC (Calculated)
09:21AM -20.6480 140.7790 326° Northwest 418 481 38,000 1,800 Climbing FlightAware
09:22AM -20.5700 140.7230 326° Northwest 420 483 38,000  Level FlightAware
09:23AM -20.5070 140.6780 326° Northwest 420 483 38,000  Level FlightAware
09:23AM -19.9946 140.3020 145° Southeast 36,000  Descending Aus ATC (Calculated)
09:24AM -20.4410 140.6310 326° Northwest 421 484 38,000 2,400 Climbing FlightAware
09:24AM -20.3680 140.5790 326° Northwest 422 486 38,000  Level FlightAware
09:25AM -20.2740 140.5130 327° Northwest 422 486 38,000  Level FlightAware
09:26AM -19.8179 140.1587 144° Southeast 36,000  Descending Aus ATC (Calculated)
09:26AM -20.2090 140.4660 326° Northwest 421 484 38,000 1,740 Climbing FlightAware
09:27AM -20.1370 140.4150 326° Northwest 421 484 38,000  Level FlightAware
09:27AM -19.6411 140.0157 143° Southeast 36,000  Descending Aus ATC (Calculated)
09:27AM -20.0740 140.3670 326° Northwest 417 480 38,000 1,920 Climbing FlightAware
09:28AM -20.0120 140.3160 322° Northwest 418 481 38,000  Level FlightAware
09:29AM -19.9420 140.2600 323° Northwest 420 483 38,000  Level FlightAware
09:29AM -19.8830 140.2110 322° Northwest 420 483 38,000  Level FlightAware
09:32AM -19.1690 139.6359 143° Southeast 36,000  Descending Aus ATC (Calculated)
09:33AM -19.5871 139.9717 323° Northwest  Level FlightAware Approximate
09:34AM -19.0215 139.5178 323° Northwest  Level FlightAware Approximate
09:34AM -19.4500 139.8610 323° Northwest 427 491 38,000  Level FlightAware
09:35AM -19.3660 139.7940 323° Northwest 427 491 38,000  Level FlightAware
09:36AM -19.3010 139.7420 323° Northwest 428 493 38,000  Level FlightAware
09:36AM -19.2350 139.6890 323° Northwest 429 494 38,000  Level FlightAware
09:37AM -18.6961 139.2582 143° Southeast 36,000  Descending Aus ATC (Calculated)
09:37AM -19.1550 139.6250 323° Northwest 431 496 38,000 2,580 Climbing FlightAware
09:38AM -19.0940 139.5760 323° Northwest 431 496 38,000  Level FlightAware
09:39AM -18.9980 139.4990 323° Northwest 433 498 38,000  Level FlightAware
09:39AM -18.9460 139.4580 323° Northwest 434 499 38,000  Level FlightAware
09:40AM -18.8790 139.4040 323° Northwest 435 501 38,000  Level FlightAware
09:41AM -18.7880 139.3310 323° Northwest 435 501 38,000  Level FlightAware
09:42AM -18.7140 139.2710 322° Northwest 435 501 38,000  Level FlightAware
09:42AM -18.1779 138.8475 143° Southeast 36,000  Descending Aus ATC (Calculated)
09:42AM -18.1335 138.8124 143° Southeast 36,000 3,840 Level Aus ATC (Calculated)
09:42AM -18.6370 139.2110 322° Northwest 434 499 38,000 3,120 Climbing FlightAware
09:43AM -18.5920 139.1750 323° Northwest 432 497 38,000  Level FlightAware
09:44AM -18.5260 139.1230 323° Northwest 431 496 38,000  Level FlightAware
09:44AM -18.4650 139.0740 323° Northwest 431 496 38,000  Level FlightAware
09:44AM -18.4480 139.0620 326° Northwest 431 496 38,000  Level FlightAware
09:47AM -17.6438 138.4274 143° Southeast 36,000  Descending Aus ATC (Calculated)
09:48AM -18.1460 138.8220 326° Northwest 438 504 38,000 1,380 Climbing FlightAware
09:48AM -18.0780 138.7680 323° Northwest 439 505 38,000  Level FlightAware
09:49AM -18.0000 138.7070 323° Northwest 439 505 38,000  Level FlightAware
09:51AM -17.8290 138.5720 323° Northwest 439 505 38,000  Level FlightAware
09:52AM -17.7790 138.5330 323° Northwest 439 505 38,000  Level FlightAware
09:52AM -17.1534 138.0445 143° Southeast 36,000  Descending Aus ATC (Calculated)
09:53AM -17.6950 138.4660 323° Northwest 439 505 38,000 1,200 Climbing FlightAware
09:53AM -17.6200 138.4070 323° Northwest 439 505 38,000  Level FlightAware
09:54AM -16.9302 137.8712 144° Southeast 36,000  Descending Aus ATC (Calculated)
09:54AM -17.5530 138.3540 323° Northwest 439 505 38,000 1,380 Climbing FlightAware
09:55AM -17.4700 138.2890 323° Northwest 439 505 38,000  Level FlightAware
09:56AM -17.4080 138.2400 323° Northwest 439 505 38,000  Level FlightAware
09:57AM -16.6175 137.6291 144° Southeast 36,000  Descending Aus ATC (Calculated)
09:57AM -17.3240 138.1730 323° Northwest 439 505 38,000 2,220 Climbing FlightAware
09:58AM -17.2720 138.1320 323° Northwest 439 505 38,000  Level FlightAware
09:58AM -17.2040 138.0790 323° Northwest 439 505 38,000  Level FlightAware
09:59AM -17.1540 138.0390 323° Northwest 439 505 38,000  Level FlightAware
10:00AM -17.0550 137.9610 323° Northwest 439 505 38,000  Level FlightAware
10:02AM -16.0808 137.2160 323° Northwest 36,000  Descending Aus ATC (Calculated)
10:04AM -15.9111 137.0859 324° Northwest  Level FlightAware Approximate
10:05AM -15.8150 137.0124 324° Northwest  Level FlightAware Approximate
10:06AM -15.7189 136.9389 324° Northwest  Level FlightAware Approximate
10:07AM -15.6227 136.8656 324° Northwest  Level FlightAware Approximate
10:07AM -15.5433 136.8050 324° Northwest 36,000  Level Aus ATC (Calculated)
10:09AM -15.3813 136.6817 324° Northwest  Level FlightAware Approximate
10:09AM -15.3195 136.6348 323° Northwest 36,000  Level Aus ATC (Calculated)
10:10AM -15.1863 136.5336 323° Northwest 36,000 180 Level Aus ATC (Calculated)
10:12AM -15.2890 136.6116 144° Southeast  Level FlightAware Approximate
10:13AM -15.3852 136.6847 144° Southeast  Level FlightAware Approximate
10:14AM -15.2890 136.6116 324° Northwest  Level FlightAware Approximate
10:14AM -14.8308 136.2646 145° Southeast 36,000  Level Aus ATC (Calculated)
10:15AM -15.3852 136.6847 144° Southeast  Level FlightAware Approximate
10:16AM -14.9946 136.3884 144° Southeast  Level FlightAware Approximate
10:16AM -14.6085 136.0969 144° Southeast 36,000  Level Aus ATC (Calculated)
10:17AM -15.0909 136.4613 144° Southeast  Level FlightAware Approximate
10:18AM -14.7724 136.2204 144° Southeast  Level FlightAware Approximate
10:19AM -14.8687 136.2932 144° Southeast  Level FlightAware Approximate
10:20AM -14.9651 136.3661 144° Southeast  Level FlightAware Approximate
10:20AM -14.9517 136.3524 144° Southeast 486 559 38,100  Level Aus ATC (RADAR)
10:22AM -14.7418 136.1940 324° Northwest 450 518 38,100  Level Aus ATC (RADAR)
10:23AM -14.6338 136.1126 324° Northwest 441 507 38,100  Level Aus ATC (RADAR)
10:24AM -14.5284 136.0292 323° Northwest 445 512 38,100  Level Aus ATC (RADAR)
10:25AM -14.4254 135.9552 325° Northwest 442 509 38,100  Level Aus ATC (RADAR)
10:26AM -14.3171 135.8737 324° Northwest 441 507 38,100  Level Aus ATC (RADAR)
10:27AM -14.2091 135.7917 324° Northwest 441 507 38,100  Level Aus ATC (RADAR)
10:29AM -14.0923 135.7041 324° Northwest 442 509 38,100  Level Aus ATC (RADAR)
10:30AM -13.9813 135.6224 324° Northwest 445 512 38,100  Level Aus ATC (RADAR)
10:31AM -13.8790 135.5462 324° Northwest 446 513 38,100  Level Aus ATC (RADAR)
10:32AM -13.7673 135.4633 324° Northwest 449 517 38,100  Level Aus ATC (RADAR)
10:33AM -13.6567 135.3814 324° Northwest 446 513 38,100  Level Aus ATC (RADAR)
10:34AM -13.5537 135.3051 324° Northwest 449 517 38,100  Level Aus ATC (RADAR)
10:35AM -13.4441 135.2239 324° Northwest 443 510 38,100  Level Aus ATC (RADAR)
10:36AM -13.3429 135.1485 324° Northwest 442 509 38,100  Level Aus ATC (RADAR)
10:37AM -13.2337 135.0679 324° Northwest 439 505 38,100  Level Aus ATC (RADAR)
10:38AM -13.1178 134.9833 325° Northwest 453 521 38,100  Level Aus ATC (RADAR)
10:39AM -13.0178 134.9093 324° Northwest 439 505 38,100  Level Aus ATC (RADAR)
10:40AM -12.9084 134.8285 324° Northwest 442 509 38,100  Level Aus ATC (RADAR)
10:41AM -12.7987 134.7479 324° Northwest 440 506 38,100  Level Aus ATC (RADAR)
10:42AM -12.6958 134.6715 324° Northwest 445 512 38,100  Level Aus ATC (RADAR)
10:43AM -12.5932 134.5960 324° Northwest 447 514 38,100  Level Aus ATC (RADAR)
10:44AM -12.4731 134.5073 324° Northwest 448 516 38,100  Level Aus ATC (RADAR)
10:45AM -12.3706 134.4312 324° Northwest 448 516 38,100 -120 Level Aus ATC (RADAR)
10:46AM -12.3410 134.4090 324° Northwest 459 528 38,000 -120 Descending FlightAware
10:46AM -12.2710 134.3580 325° Northwest 456 525 38,000 120 Level FlightAware
10:46AM -12.2579 134.3488 324° Northwest 448 516 38,100  Climbing Aus ATC (RADAR)
10:47AM -12.2290 134.3270 324° Northwest 456 525 38,000 -120 Descending FlightAware
10:47AM -12.1500 134.2690 324° Northwest 454 522 38,000 120 Level FlightAware
10:48AM -12.1453 134.2667 324° Northwest 450 518 38,100  Climbing Aus ATC (RADAR)
10:48AM -12.0500 134.1960 324° Northwest 454 522 38,000 -120 Descending FlightAware
10:49AM -11.9820 134.1460 324° Northwest 454 522 38,000  Level FlightAware
10:51AM -11.8360 134.0390 324° Northwest 453 521 38,000  Level FlightAware
10:51AM -11.7660 133.9870 324° Northwest 454 522 38,000  Level FlightAware
10:52AM -11.7096 133.9467 324° Northwest 444 511 38,000  Level Aus ATC (RADAR)
10:52AM -11.6920 133.9330 324° Northwest 454 522 38,000  Level FlightAware
10:53AM -11.6220 133.8820 324° Northwest 454 522 38,000  Level FlightAware
10:53AM -11.6065 133.8717 324° Northwest 446 513 38,000  Level Aus ATC (RADAR)
10:54AM -11.5270 133.8130 325° Northwest 454 522 38,000  Level FlightAware
10:54AM -11.4500 133.7570 325° Northwest 458 527 38,000  Level FlightAware
10:55AM -11.3922 133.7147 325° Northwest 445 512 38,000  Level Aus ATC (RADAR)
10:55AM -11.3620 133.6920 325° Northwest 456 525 38,000  Level FlightAware
10:56AM -11.2830 133.6350 325° Northwest 456 525 38,000 120 Level FlightAware
10:56AM -11.2798 133.6324 325° Northwest 447 514 38,100  Climbing Aus ATC (RADAR)
10:57AM -11.2070 133.5800 325° Northwest 456 525 38,000 -120 Descending FlightAware
10:57AM -11.1370 133.5290 324° Northwest 456 525 38,000 60 Level FlightAware
10:58AM -11.0599 133.4727 324° Northwest 452 520 38,100  Climbing Aus ATC (RADAR)
10:58AM -11.0590 133.4720 324° Northwest 455 524 38,000 -180 Descending FlightAware
10:59AM -10.9860 133.4190 325° Northwest 455 524 38,000  Level FlightAware
10:59AM -10.9298 133.3780 325° Northwest 447 514 38,000  Level Aus ATC (RADAR)
10:59AM -10.9160 133.3680 325° Northwest 460 529 38,000  Level FlightAware
11:00AM -10.8400 133.3130 325° Northwest 460 529 38,000  Level FlightAware
11:01AM -10.7620 133.2560 324° Northwest 459 528 38,000  Level FlightAware
11:01AM -10.7000 133.2120 325° Northwest 459 528 38,000  Level FlightAware
11:02AM -10.6210 133.1540 324° Northwest 460 529 38,000  Level FlightAware
11:03AM -10.5430 133.0980 325° Northwest 454 522 38,000  Level FlightAware
11:04AM -10.4730 133.0470 324° Northwest 455 524 38,000  Level FlightAware
11:04AM -10.4220 133.0100 324° Northwest 455 524 38,000 60 Level FlightAware
11:05AM -10.3565 132.9621 324° Northwest 449 517 38,100  Climbing Aus ATC (RADAR)
11:05AM -10.3520 132.9600 324° Northwest 457 526 38,000 -180 Descending FlightAware
11:05AM -10.2820 132.9090 324° Northwest 458 527 38,000  Level FlightAware
11:06AM -10.2290 132.8710 325° Northwest 458 527 38,000  Level FlightAware
11:07AM -10.1570 132.8190 325° Northwest 456 525 38,000  Level FlightAware
11:07AM -10.0800 132.7630 324° Northwest 456 525 38,000  Level FlightAware
11:08AM -10.0180 132.7180 324° Northwest 456 525 38,000  Level FlightAware
11:08AM -10.0061 132.7087 324° Northwest 454 522 38,000  Level Aus ATC (RADAR)
11:09AM -9.9400 132.6620 325° Northwest 455 524 38,000  Level FlightAware
11:09AM -9.8640 132.6070 325° Northwest 453 521 38,000  Level FlightAware
11:10AM -9.7827 132.5446 325° Northwest 440 506 38,000  Level Aus ATC (RADAR)
11:10AM -9.7770 132.5410 325° Northwest 453 521 38,000 60 Level FlightAware
11:11AM -9.6794 132.4321 325° Northwest 448 516 38,100  Climbing Aus ATC (RADAR)
11:12AM -9.6410 132.4290 325° Northwest 453 521 38,000 -120 Descending FlightAware
11:13AM -9.5410 132.2860 305° West 455 524 38,000 60 Level FlightAware
11:13AM -9.4973 132.2394 305° West 440 506 38,100  Climbing Aus ATC (RADAR)
11:14AM -9.4840 132.2250 305° West 455 524 38,000 -180 Descending FlightAware
11:14AM -9.4380 132.1760 314° West 456 525 38,000  Level FlightAware
11:15AM -9.3870 132.1210 313° West 455 524 38,000  Level FlightAware
11:16AM -9.3065 132.0332 313° West 443 510 38,000  Level Aus ATC (RADAR)
11:16AM -9.2840 132.0100 313° West 454 522 38,000 60 Level FlightAware
11:17AM -9.2191 131.9382 313° West 444 511 38,100  Climbing Aus ATC (RADAR)
11:17AM -9.2190 131.9390 313° West 455 524 38,000 -120 Descending FlightAware
11:18AM -9.1311 131.8432 313° West 445 512 38,000  Level Aus ATC (RADAR)
11:18AM -9.1420 131.8540 313° West 455 524 38,000  Level FlightAware
11:19AM -9.0640 131.7710 314° West 455 524 38,000  Level FlightAware
11:19AM -8.9990 131.7010 313° West 454 522 38,000  Level FlightAware
11:21AM -8.8890 131.5770 313° West 454 522 38,000  Level FlightAware
11:21AM -8.8200 131.5645 313° West 449 517 38,000  Level Aus ATC (RADAR)
11:22AM -8.8340 131.5160 312° West 454 522 38,000  Level FlightAware
11:22AM -8.7890 131.4650 312° West 454 522 38,000  Level FlightAware
11:23AM -8.7310 131.4000 312° West 454 522 38,000  Level FlightAware
11:24AM -8.5089 131.4530 210° Southwest 38,000  Level Aus ATC (Calculated)
11:24AM -8.6870 131.3510 312° West 454 522 38,000  Level FlightAware
11:24AM -8.4000 131.4214 215° Southwest 38,000  Level Aus ATC (Calculated)
11:25AM -8.6150 131.2700 312° West 454 522 38,000  Level FlightAware
11:25AM -8.5720 131.2220 312° West 454 522 38,000  Level FlightAware
11:26AM -8.5170 131.1600 312° West 454 522 38,000  Level FlightAware
11:27AM -8.4480 131.0820 312° West 454 522 38,000  Level FlightAware
11:28AM -8.4050 131.0340 312° West 454 522 38,000  Level FlightAware
11:28AM -8.3570 130.9800 312° West 454 522 38,000  Level FlightAware
11:31AM -8.0965 130.9233 348° North  Level Estimated
11:32AM -7.9798 130.8980 348° North  Level Estimated
11:33AM -7.8632 130.8726 348° North  Level Estimated
11:34AM -7.7466 130.8473 348° North  Level Estimated
11:35AM -7.6299 130.8220 348° North  Level Estimated
11:36AM -7.5132 130.7967 348° North  Level Estimated
11:37AM -7.3966 130.7714 348° North  Level Estimated
11:38AM -7.2799 130.7462 348° North  Level Estimated
11:39AM -7.1633 130.7209 348° North  Level Estimated
11:40AM -7.0466 130.6957 348° North  Level Estimated
11:41AM -6.9300 130.6704 348° North  Level Estimated
11:42AM -6.8133 130.6452 348° North  Level Estimated
11:43AM -6.6966 130.6200 348° North  Level Estimated
11:44AM -6.5800 130.5948 348° North  Level Estimated
11:45AM -6.4633 130.5696 348° North  Level Estimated
11:46AM -6.3467 130.5445 348° North  Level Estimated
11:47AM -6.2300 130.5193 348° North  Level Estimated
11:48AM -6.1133 130.4942 348° North  Level Estimated
11:49AM -5.9966 130.4690 348° North  Level Estimated
11:50AM -5.8800 130.4439 348° North  Level Estimated
11:51AM -5.7633 130.4188 348° North  Level Estimated
11:52AM -5.6466 130.3937 348° North  Level Estimated
11:53AM -5.5300 130.3686 348° North  Level Estimated
11:54AM -5.4133 130.3435 348° North  Level Estimated
11:55AM -5.2966 130.3185 348° North  Level Estimated
11:56AM -5.1799 130.2934 348° North  Level Estimated
11:57AM -5.0633 130.2683 348° North  Level Estimated
11:58AM -4.9466 130.2433 348° North  Level Estimated
11:59AM -4.8299 130.2182 348° North  Level Estimated
12:00PM -4.7132 130.1932 348° North  Level Estimated
12:01PM -4.5965 130.1682 348° North  Level Estimated
12:02PM -4.4798 130.1432 348° North  Level Estimated
12:03PM -4.3632 130.1182 348° North  Level Estimated
12:04PM -4.2465 130.0932 348° North  Level Estimated
12:05PM -4.1298 130.0682 348° North  Level Estimated
12:06PM -4.0131 130.0432 348° North  Level Estimated
12:07PM -3.8964 130.0182 348° North  Level Estimated
12:08PM -3.7797 129.9933 348° North  Level Estimated
12:09PM -3.6630 129.9683 348° North  Level Estimated
12:10PM -3.5464 129.9433 348° North  Level Estimated
12:11PM -3.4297 129.9184 348° North  Level Estimated
12:12PM -3.3130 129.8935 348° North  Level Estimated
12:13PM -3.1963 129.8685 348° North  Level Estimated
12:14PM -3.0796 129.8436 348° North  Level Estimated
12:15PM -2.9629 129.8187 348° North  Level Estimated
12:16PM -2.8462 129.7937 348° North  Level Estimated
12:17PM -2.7295 129.7688 348° North  Level Estimated
12:18PM -2.6128 129.7439 348° North  Level Estimated
12:19PM -2.4962 129.7190 348° North  Level Estimated
12:20PM -2.3795 129.6941 348° North  Level Estimated
12:21PM -2.2628 129.6692 348° North  Level Estimated
12:22PM -2.1461 129.6443 348° North  Level Estimated
12:23PM -2.0294 129.6194 348° North  Level Estimated
12:24PM -1.9127 129.5945 348° North  Level Estimated
12:25PM -1.7960 129.5697 348° North  Level Estimated
12:26PM -1.6793 129.5448 348° North  Level Estimated
12:27PM -1.5626 129.5199 348° North  Level Estimated
12:28PM -1.4459 129.4950 348° North  Level Estimated
12:29PM -1.3292 129.4702 348° North  Level Estimated
12:30PM -1.2125 129.4453 348° North  Level Estimated
12:31PM -1.0958 129.4204 348° North  Level Estimated
12:32PM -0.9791 129.3956 348° North  Level Estimated
12:33PM -0.8624 129.3707 348° North  Level Estimated
12:34PM -0.7457 129.3458 348° North  Level Estimated
12:35PM -0.6290 129.3210 348° North  Level Estimated
12:36PM -0.5123 129.2961 348° North  Level Estimated
12:37PM -0.3956 129.2713 348° North  Level Estimated
12:38PM -0.2789 129.2464 348° North  Level Estimated
12:39PM -0.1622 129.2215 348° North  Level Estimated
12:40PM -0.0455 129.1967 348° North  Level Estimated
12:41PM 0.0712 129.1718 348° North  Level Estimated
12:42PM 0.1879 129.1470 348° North  Level Estimated
12:43PM 0.3046 129.1221 348° North  Level Estimated
12:44PM 0.4213 129.0972 348° North  Level Estimated
12:45PM 0.5380 129.0724 348° North  Level Estimated
12:46PM 0.6547 129.0475 348° North  Level Estimated
12:47PM 0.7714 129.0226 348° North  Level Estimated
12:48PM 0.8881 128.9978 348° North  Level Estimated
12:49PM 1.0048 128.9729 348° North  Level Estimated
12:50PM 1.1215 128.9481 348° North  Level Estimated
12:51PM 1.2382 128.9232 348° North  Level Estimated
12:52PM 1.3549 128.8983 348° North  Level Estimated
12:53PM 1.4716 128.8735 348° North  Level Estimated
12:54PM 1.5883 128.8486 348° North  Level Estimated
12:55PM 1.7050 128.8237 348° North  Level Estimated
12:56PM 1.8217 128.7988 348° North  Level Estimated
12:57PM 1.9384 128.7740 348° North  Level Estimated
12:58PM 2.0551 128.7491 348° North  Level Estimated
12:59PM 2.1718 128.7242 348° North  Level Estimated
01:00PM 2.2885 128.6993 348° North  Level Estimated
01:01PM 2.4052 128.6744 348° North  Level Estimated
01:02PM 2.5219 128.6495 348° North  Level Estimated
01:03PM 2.6386 128.6246 348° North  Level Estimated
01:04PM 2.7553 128.5997 348° North  Level Estimated
01:05PM 2.8720 128.5747 348° North  Level Estimated
01:06PM 2.9887 128.5498 348° North  Level Estimated
01:07PM 3.1054 128.5249 348° North  Level Estimated
01:08PM 3.2220 128.5000 348° North  Level Estimated
01:09PM 3.3387 128.4750 348° North  Level Estimated
01:10PM 3.4554 128.4501 348° North  Level Estimated
01:11PM 3.5721 128.4251 348° North  Level Estimated
01:12PM 3.6888 128.4002 348° North  Level Estimated
01:13PM 3.8055 128.3752 348° North  Level Estimated
01:14PM 3.9222 128.3502 348° North  Level Estimated
01:15PM 4.0389 128.3253 348° North  Level Estimated
01:16PM 4.1556 128.3003 348° North  Level Estimated
01:17PM 4.2723 128.2753 348° North  Level Estimated
01:18PM 4.3889 128.2503 348° North  Level Estimated
01:19PM 4.5056 128.2253 348° North  Level Estimated
01:20PM 4.6223 128.2003 348° North  Level Estimated
01:21PM 4.7390 128.1752 348° North  Level Estimated
01:22PM 4.8556 128.1502 348° North  Level Estimated
01:23PM 4.9723 128.1252 348° North  Level Estimated
01:24PM 5.0890 128.1001 348° North  Level Estimated
01:25PM 5.2057 128.0751 348° North  Level Estimated
01:26PM 5.3224 128.0500 348° North  Level Estimated
01:27PM 5.4391 128.0249 348° North  Level Estimated
01:28PM 5.5557 127.9998 348° North  Level Estimated
01:29PM 5.6724 127.9747 348° North  Level Estimated
01:30PM 5.7891 127.9496 348° North  Level Estimated
01:31PM 5.9057 127.9245 348° North  Level Estimated
01:32PM 6.0224 127.8994 348° North  Level Estimated
01:33PM 6.1391 127.8742 348° North  Level Estimated
01:34PM 6.2557 127.8491 348° North  Level Estimated
01:35PM 6.3724 127.8239 348° North  Level Estimated
01:36PM 6.4891 127.7988 348° North  Level Estimated
01:37PM 6.6057 127.7736 348° North  Level Estimated
01:38PM 6.7224 127.7484 348° North  Level Estimated
01:39PM 6.8391 127.7232 348° North  Level Estimated
01:40PM 6.9557 127.6979 348° North  Level Estimated
01:41PM 7.0724 127.6727 348° North  Level Estimated
01:42PM 7.1890 127.6475 348° North  Level Estimated
01:43PM 7.3057 127.6222 348° North  Level Estimated
01:44PM 7.4223 127.5969 348° North  Level Estimated
01:45PM 7.5390 127.5717 348° North  Level Estimated
01:46PM 7.6557 127.5464 348° North  Level Estimated
01:47PM 7.7723 127.5210 348° North  Level Estimated
01:48PM 7.8889 127.4957 348° North  Level Estimated
01:49PM 8.0056 127.4704 348° North  Level Estimated
01:50PM 8.1222 127.4450 348° North  Level Estimated
01:51PM 8.2389 127.4197 348° North  Level Estimated
01:52PM 8.3555 127.3943 348° North  Level Estimated
01:53PM 8.4722 127.3689 348° North  Level Estimated
01:54PM 8.5888 127.3435 348° North  Level Estimated
01:55PM 8.7055 127.3180 348° North  Level Estimated
01:56PM 8.8221 127.2926 348° North  Level Estimated
01:57PM 8.9387 127.2671 348° North  Level Estimated
01:58PM 9.0554 127.2416 348° North  Level Estimated
01:59PM 9.1720 127.2161 348° North  Level Estimated
02:00PM 9.2886 127.1906 348° North  Level Estimated
02:01PM 9.4052 127.1651 348° North  Level Estimated
02:02PM 9.5219 127.1395 348° North  Level Estimated
02:03PM 9.6385 127.1140 348° North  Level Estimated
02:04PM 9.7551 127.0884 348° North  Level Estimated
02:05PM 9.8717 127.0628 348° North  Level Estimated
02:06PM 9.9883 127.0372 348° North  Level Estimated
02:07PM 10.1050 127.0116 348° North  Level Estimated
02:08PM 10.2216 126.9859 348° North  Level Estimated
02:09PM 10.3382 126.9602 348° North  Level Estimated
02:10PM 10.4548 126.9345 348° North  Level Estimated
02:11PM 10.5714 126.9088 348° North  Level Estimated
02:12PM 10.6880 126.8831 348° North  Level Estimated
02:13PM 10.8046 126.8574 348° North  Level Estimated
02:14PM 10.9212 126.8316 348° North  Level Estimated
02:15PM 11.0378 126.8058 348° North  Level Estimated
02:16PM 11.1544 126.7800 348° North  Level Estimated
02:17PM 11.2710 126.7542 348° North  Level Estimated
02:18PM 11.3876 126.7283 348° North  Level Estimated
02:19PM 11.5042 126.7024 348° North  Level Estimated
02:20PM 11.6208 126.6765 348° North  Level Estimated
02:21PM 11.7374 126.6506 348° North  Level Estimated
02:22PM 11.8540 126.6247 348° North  Level Estimated
02:23PM 11.9705 126.5987 348° North  Level Estimated
02:24PM 12.0871 126.5727 348° North  Level Estimated
02:25PM 12.2037 126.5467 348° North  Level Estimated
02:26PM 12.3203 126.5207 348° North  Level Estimated
02:27PM 12.4368 126.4946 348° North  Level Estimated
02:28PM 12.5534 126.4686 348° North  Level Estimated
02:29PM 12.6700 126.4425 348° North  Level Estimated
02:30PM 12.7865 126.4163 348° North  Level Estimated
02:31PM 12.9031 126.3902 348° North  Level Estimated
02:32PM 13.0197 126.3640 348° North  Level Estimated
02:33PM 13.1362 126.3378 348° North  Level Estimated
02:34PM 13.2528 126.3116 348° North  Level Estimated
02:35PM 13.3693 126.2853 348° North  Level Estimated
02:36PM 13.4859 126.2591 348° North  Level Estimated
02:37PM 13.6024 126.2328 348° North  Level Estimated
02:38PM 13.7190 126.2065 348° North  Level Estimated
02:39PM 13.8355 126.1801 348° North  Level Estimated
02:40PM 13.9520 126.1537 348° North  Level Estimated
02:41PM 14.0686 126.1273 348° North  Level Estimated
02:42PM 14.1851 126.1009 348° North  Level Estimated
02:42PM 12.5840 119.4180 348° North 451 519 41,000  Level FlightAware
02:43PM 14.3016 126.0744 348° North  Level Estimated
02:43PM 12.6580 119.4020 348° North 452 520 41,000  Level FlightAware
02:44PM 12.7620 119.3780 347° North 452 520 41,000  Level FlightAware
02:44PM 12.8220 119.3650 348° North 453 521 41,000  Level FlightAware
02:47PM 13.0887 119.3966 North  Level Estimated
02:48PM 13.2072 119.4106 North  Level Estimated
02:48PM 13.3360 119.2790 North 450 518 41,000  Level FlightAware
02:49PM 13.3258 119.4247 North  Level Estimated
02:49PM 13.4270 119.2910 North 451 519 41,000  Level FlightAware
02:51PM 13.6180 119.3140 North 452 520 41,000  Level FlightAware
02:52PM 13.7530 119.3290 North 453 521 41,000  Level FlightAware
02:52PM 13.8250 119.3380 North 455 524 41,000  Level FlightAware
02:53PM 13.9140 119.3480 North 457 526 41,000  Level FlightAware
02:54PM 14.0180 119.3590 North 459 528 41,000  Level FlightAware
02:54PM 14.0970 119.3670 North 461 531 41,000  Level FlightAware
02:56PM 14.3190 119.3900 North 468 539 41,000  Level FlightAware
02:57PM 14.4100 119.4010 North 470 541 41,000  Level FlightAware
02:58PM 14.5030 119.4190 11° North 469 540 41,000  Level FlightAware
02:58PM 14.5850 119.4380 13° North 469 540 41,000  Level FlightAware
02:59PM 14.6730 119.4630 15° North 466 536 41,000  Level FlightAware
03:00PM 14.7900 119.5100 21° North 464 534 41,000  Level FlightAware
03:01PM 14.9010 119.5570 22° Northeast 466 536 41,000  Level FlightAware
03:02PM 14.9820 119.5920 23° Northeast 468 539 41,000  Level FlightAware
03:02PM 15.0670 119.6280 22° Northeast 468 539 41,000  Level FlightAware
03:03PM 15.1600 119.6460 11° North 472 543 41,000  Level FlightAware
03:03PM 15.2180 119.6470 North 475 547 41,000  Level FlightAware
03:04PM 15.3110 119.6470 360° North 476 548 41,000  Level FlightAware
03:05PM 15.4070 119.6460 359° North 478 550 41,000  Level FlightAware
03:06PM 15.4920 119.6220 345° North 478 550 41,000  Level FlightAware
03:06PM 15.5770 119.5910 341° North 479 551 41,000  Level FlightAware
03:07PM 15.6700 119.5570 341° North 482 555 41,000  Level FlightAware
03:08PM 15.7590 119.5240 340° North 482 555 41,000  Level FlightAware
03:08PM 15.8520 119.4880 340° North 480 552 41,000  Level FlightAware
03:09PM 15.9150 119.4280 318° Northwest 475 547 41,000  Level FlightAware
03:10PM 15.9460 119.3470 292° West 473 544 41,000  Level FlightAware
03:10PM 15.9710 119.2690 288° West 474 545 41,000  Level FlightAware
03:12PM 16.0370 119.0630 288° West 478 550 41,000  Level FlightAware
03:13PM 16.0650 118.9730 288° West 480 552 41,000  Level FlightAware
03:13PM 16.0930 118.8820 288° West 482 555 41,000  Level FlightAware
03:14PM 16.1270 118.7910 291° West 481 554 41,000  Level FlightAware
03:15PM 16.1640 118.7150 297° West 481 554 41,000  Level FlightAware
03:15PM 16.2170 118.6330 304° West 477 549 41,000 -660 Level FlightAware
03:16PM 16.2770 118.5510 307° West 474 545 40,100 -1,200 Descending FlightAware
03:17PM 16.3320 118.4770 308° West 471 542 39,300 -1,200 Descending FlightAware
03:17PM 16.3720 118.4240 308° West 475 547 38,700 -780 Descending FlightAware
03:18PM 16.4400 118.3310 307° West 479 551 38,200 -300 Descending FlightAware
03:19PM 16.4920 118.2590 307° West 479 551 38,200  Level FlightAware
03:19PM 16.5340 118.2010 307° West 479 551 38,200  Level FlightAware
03:21PM 16.6310 118.0660 307° West 479 551 38,200  Level FlightAware
03:22PM 16.7130 117.9530 307° West 479 551 38,200  Level FlightAware
03:23PM 16.7550 117.8950 307° West 479 551 38,200  Level FlightAware
03:23PM 16.8070 117.8220 307° West 479 551 38,200  Level FlightAware
03:24PM 16.8490 117.7640 307° West 479 551 38,200  Level FlightAware
03:26PM 16.9610 117.6080 307° West 479 551 38,200  Level FlightAware
03:27PM 17.0150 117.5330 307° West 479 551 38,200  Level FlightAware
03:27PM 17.0550 117.4780 307° West 479 551 38,200 60 Level FlightAware
03:30PM 17.3280 117.5534 15° North  Level Estimated
03:31PM 17.4434 117.5854 15° North  Level Estimated
03:32PM 17.5587 117.6174 15° North  Level Estimated
03:33PM 17.6741 117.6494 15° North  Level Estimated
03:34PM 17.7894 117.6814 15° North  Level Estimated
03:35PM 17.9048 117.7136 15° North  Level Estimated
03:36PM 18.0201 117.7457 15° North  Level Estimated
03:37PM 18.1354 117.7779 15° North  Level Estimated
03:38PM 18.2507 117.8101 15° North  Level Estimated
03:39PM 18.3661 117.8424 15° North  Level Estimated
03:40PM 18.4814 117.8747 15° North  Level Estimated
03:41PM 18.5967 117.9071 15° North  Level Estimated
03:42PM 18.7120 117.9395 15° North  Level Estimated
03:43PM 18.8273 117.9719 15° North  Level Estimated
03:44PM 18.9426 118.0044 15° North  Level Estimated
03:45PM 19.0578 118.0370 15° North  Level Estimated
03:46PM 19.1731 118.0696 15° North  Level Estimated
03:47PM 19.2884 118.1022 15° North  Level Estimated
03:48PM 19.4037 118.1349 15° North  Level Estimated
03:49PM 19.5189 118.1676 15° North  Level Estimated
03:50PM 19.6342 118.2004 15° North  Level Estimated
03:51PM 19.7494 118.2332 15° North  Level Estimated
03:52PM 19.8647 118.2661 15° North  Level Estimated
03:53PM 19.9799 118.2990 15° North  Level Estimated
03:54PM 20.0951 118.3319 15° North  Level Estimated
03:55PM 20.2103 118.3649 15° North  Level Estimated
03:56PM 20.3256 118.3980 15° North  Level Estimated
03:57PM 20.4408 118.4311 15° North  Level Estimated
03:58PM 20.5560 118.4643 15° North  Level Estimated
03:59PM 20.6712 118.4975 15° North  Level Estimated
04:00PM 20.7864 118.5307 15° North  Level Estimated
04:01PM 20.9015 118.5640 15° North  Level Estimated
04:02PM 21.0167 118.5974 15° North  Level Estimated
04:03PM 21.1319 118.6308 15° North  Level Estimated
04:04PM 21.2470 118.6643 15° North  Level Estimated
04:05PM 21.3622 118.6978 15° North  Level Estimated
04:06PM 21.4774 118.7314 15° North  Level Estimated
04:07PM 21.5925 118.7650 15° North  Level Estimated
04:08PM 21.7076 118.7987 15° North  Level Estimated
04:09PM 21.8228 118.8324 15° North  Level Estimated
04:10PM 21.9379 118.8662 15° North  Level Estimated
04:11PM 22.0530 118.9000 15° North  Level Estimated
04:11PM 22.3050 116.1820 15° North 447 514 41,000  Level FlightAware
04:12PM 22.1681 118.9339 15° North  Level Estimated
04:12PM 22.3770 116.1790 358° North 447 514 41,000  Level FlightAware
04:12PM 22.4790 116.1760 358° North 447 514 41,000  Level FlightAware
04:13PM 22.5900 116.1770 360° North 445 512 41,000  Level FlightAware
04:14PM 22.6730 116.1930 10° North 443 510 41,000  Level FlightAware
04:15PM 22.7380 116.2130 16° North 443 510 41,000  Level FlightAware
04:16PM 22.8400 116.2450 16° North 443 510 41,000  Level FlightAware
04:16PM 22.9020 116.2640 16° North 443 510 41,000  Level FlightAware
04:17PM 22.9670 116.2840 16° North 443 510 41,000  Level FlightAware
04:18PM 23.0460 116.3090 16° North 443 510 41,000  Level FlightAware
04:18PM 23.1100 116.3290 16° North 443 510 41,000  Level FlightAware
04:19PM 23.1900 116.3540 16° North 443 510 41,000  Level FlightAware
04:20PM 23.2490 116.3720 16° North 443 510 41,000  Level FlightAware
04:22PM 23.4466 116.4974 30° Northeast  Level Estimated
04:22PM 23.4480 116.4340 30° Northeast 443 510 41,000  Level FlightAware
04:22PM 23.4970 116.9110 84° East 453 521 41,100 60 Climbing FlightAware
04:23PM 23.5430 116.9630 46° Northeast 453 521 41,100  Level FlightAware
04:24PM 23.6020 117.0300 46° Northeast 453 521 41,100  Level FlightAware
04:25PM 23.6850 117.1240 46° Northeast 453 521 41,100  Level FlightAware
04:26PM 23.7580 117.2060 46° Northeast 453 521 41,100  Level FlightAware
04:27PM 23.8050 117.2590 46° Northeast 453 521 41,100  Level FlightAware
04:28PM 23.8930 117.3590 46° Northeast 453 521 41,100  Level FlightAware
04:28PM 23.9400 117.4120 46° Northeast 453 521 41,100  Level FlightAware
04:31PM 24.1572 117.5351 27° Northeast  Level Estimated
04:31PM 24.0970 117.5900 27° Northeast 453 521 41,100  Level FlightAware
04:33PM 24.3027 117.7045 27° Northeast  Level Estimated
04:34PM 24.4090 117.7639 27° Northeast  Level Estimated
04:35PM 24.5153 117.8234 27° Northeast  Level Estimated
04:36PM 24.6216 117.8830 27° Northeast  Level Estimated
04:37PM 24.7279 117.9427 27° Northeast  Level Estimated
04:38PM 24.8342 118.0025 27° Northeast  Level Estimated
04:39PM 24.9404 118.0624 27° Northeast  Level Estimated
04:39PM 24.9930 118.5830 27° Northeast 464 534 41,100  Level FlightAware
04:40PM 25.0466 118.1224 27° Northeast  Level Estimated
04:41PM 25.1610 118.7820 24° Northeast 465 535 41,100  Level FlightAware
04:42PM 25.2201 118.6947 24° Northeast  Level Estimated
04:44PM 25.4003 118.8958 23° Northeast  Level Estimated
04:44PM 25.3580 119.0160 23° Northeast 465 535 41,100  Level FlightAware
04:46PM 25.5365 119.0970 22° Northeast  Level Estimated
04:47PM 25.6469 119.1473 22° Northeast  Level Estimated
04:48PM 25.7572 119.1976 22° Northeast  Level Estimated
04:49PM 25.8676 119.2480 22° Northeast  Level Estimated
04:50PM 25.9779 119.2985 22° Northeast  Level Estimated
04:51PM 26.0882 119.3492 22° Northeast  Level Estimated
04:52PM 26.1985 119.3999 22° Northeast  Level Estimated
04:52PM 26.2860 119.6580 22° Northeast 467 537 41,100  Level FlightAware
04:53PM 26.3710 119.7210 34° Northeast 467 537 41,100  Level FlightAware
04:54PM 26.4560 119.7800 32° Northeast 465 535 41,100  Level FlightAware
04:54PM 26.5270 119.8300 32° Northeast 465 535 41,100  Level FlightAware
04:57PM 26.7718 119.9296 20° North  Level Estimated
04:57PM 26.8590 120.0640 20° North 470 541 41,100  Level FlightAware
04:58PM 26.9750 120.1460 32° Northeast 469 540 41,100  Level FlightAware
04:59PM 27.0480 120.1990 33° Northeast 469 540 41,100  Level FlightAware
04:59PM 27.1110 120.2440 32° Northeast 467 537 41,100  Level FlightAware
05:00PM 27.2020 120.3070 32° Northeast 465 535 41,100  Level FlightAware
05:01PM 27.2700 120.3560 33° Northeast 462 532 41,100  Level FlightAware
05:02PM 27.3410 120.4060 32° Northeast 460 529 41,100  Level FlightAware
05:02PM 27.4220 120.4630 32° Northeast 459 528 41,100  Level FlightAware
05:03PM 27.5040 120.5210 32° Northeast 460 529 41,100  Level FlightAware
05:04PM 27.5820 120.5770 32° Northeast 462 532 41,100  Level FlightAware
05:06PM 27.7805 120.6425 16° North  Level Estimated
05:06PM 27.7810 120.6740 16° North 453 521 41,100  Level FlightAware
05:06PM 27.8500 120.6610 351° North 448 516 41,100  Level FlightAware
05:07PM 27.9350 120.6390 347° North 446 513 41,100  Level FlightAware
05:07PM 28.0100 120.6210 348° North 446 513 41,100  Level FlightAware
05:08PM 28.1090 120.5950 347° North 444 511 41,100  Level FlightAware
05:09PM 28.1890 120.5750 348° North 442 509 41,100  Level FlightAware
05:10PM 28.3330 120.5380 347° North 440 506 41,100  Level FlightAware
05:11PM 28.4280 120.5140 347° North 428 493 41,100 -60 Level FlightAware
05:12PM 28.5360 120.4880 348° North 433 498 41,000 -660 Descending FlightAware
05:12PM 28.6020 120.4820 355° North 446 513 40,300 -1,380 Descending FlightAware
05:13PM 28.6860 120.4890 North 454 522 39,400 -1,440 Descending FlightAware
05:14PM 28.8000 120.5130 10° North 472 543 38,100 -1,440 Descending FlightAware
05:15PM 28.9190 120.5570 18° North 486 559 36,800 -1,440 Descending FlightAware
05:16PM 29.0290 120.6340 31° Northeast 496 571 35,400 -1,500 Descending FlightAware
05:16PM 29.0970 120.6890 35° Northeast 496 571 34,500 -1,560 Descending FlightAware
05:17PM 29.1850 120.7600 35° Northeast 490 564 33,200 -1,560 Descending FlightAware
05:18PM 29.2600 120.8200 35° Northeast 472 543 32,200 -1,560 Descending FlightAware
05:18PM 29.3210 120.8690 35° Northeast 477 549 31,300 -1,680 Descending FlightAware
05:19PM 29.4060 120.9370 35° Northeast 475 547 30,000 -1,680 Descending FlightAware
05:20PM 29.4770 120.9950 35° Northeast 472 543 29,000 -1,560 Descending FlightAware
05:21PM 29.5590 121.0610 35° Northeast 457 526 27,800 -1,620 Descending FlightAware
05:21PM 29.6340 121.1210 35° Northeast 449 517 26,600 -1,620 Descending FlightAware
05:22PM 29.6930 121.1690 35° Northeast 441 507 25,700 -1,620 Descending FlightAware
05:23PM 29.7710 121.2330 35° Northeast 435 501 24,500 -1,020 Descending FlightAware
05:23PM 29.8320 121.2830 35° Northeast 433 498 24,300 -1,620 Descending FlightAware
05:24PM 29.9180 121.3490 34° Northeast 427 491 22,100 -1,560 Descending FlightAware
05:26PM 30.0520 121.4330 28° Northeast 404 465 20,900 -600 Descending FlightAware
05:26PM 30.1020 121.4650 29° Northeast 404 465 20,900  Level FlightAware
05:27PM 30.1850 121.5190 29° Northeast 404 465 20,900  Level FlightAware
05:28PM 30.2340 121.5500 29° Northeast 404 465 20,900 -1,380 Level FlightAware
05:31PM 30.5344 121.6299 13° North  Level FlightAware Approximate
05:32PM 30.6449 121.6594 13° North  Level FlightAware Approximate
05:33PM 30.7554 121.6890 13° North  Level FlightAware Approximate
05:34PM 30.8660 121.7186 13° North  Level FlightAware Approximate
05:35PM 30.9765 121.7484 13° North  Level FlightAware Approximate
05:36PM 31.0870 121.7782 13° North  Level FlightAware Approximate
05:37PM 31.1472 121.7944 359° North  Level FlightAware Approximate
05:37PM 31.0550 121.6530 359° North 262 302 8,000  Level FlightAware
05:37PM 31.0780 121.6530 360° North 256 295 7,800 -720 Descending FlightAware
05:37PM 31.1120 121.6520 359° North 228 262 7,400 -1,200 Descending FlightAware
05:38PM 31.1410 121.6500 357° North 243 280 6,700 -1,560 Descending FlightAware
05:38PM 31.1500 121.6500 360° North 244 281 6,500 -480 Descending FlightAware
05:39PM 31.1800 121.6470 355° North 242 278 6,400 -780 Descending FlightAware
05:39PM 31.2180 121.6450 357° North 242 278 5,600 -1,740 Descending FlightAware
05:40PM 31.2780 121.6420 358° North 208 239 4,000 -1,980 Descending FlightAware
05:40PM 31.2860 121.6420 360° North 213 245 3,800 -1,200 Descending FlightAware
05:41PM 31.3200 121.6670 32° Northeast 210 242 2,900 -960 Descending FlightAware
05:41PM 31.3270 121.6940 73° East 192 221 2,700 -600 Descending FlightAware
05:42PM 31.3160 121.7260 112° Southeast 181 208 2,300 -600 Descending FlightAware
05:42PM 31.3050 121.7320 155° Southeast 171 197 2,200 -300 Descending FlightAware
05:43PM 31.2870 121.7380 164° South 168 193 2,100 -120 Descending FlightAware
05:43PM 31.2680 121.7460 160° South 170 196 2,100 -420 Level FlightAware
05:44PM 31.2390 121.7570 162° South 156 180 1,700 -420 Descending FlightAware
05:44PM 31.2230 121.7630 162° South 156 180 1,700  Level FlightAware
05:47PM 31.1428 121.7924 163° South  Level Estimated
05:48PM 31.1428 121.7924 221° Southwest  Level Estimated
05:49PM 31.1428 121.7924 221° Southwest  Level Estimated
05:50PM 31.1428 121.7924 221° Southwest  Level Estimated
05:51PM 31.1428 121.7924 221° Southwest  Level Estimated
05:52PM 31.1428 121.7924 221° Southwest  Level Estimated
05:53PM 31.1428 121.7924 221° Southwest  Level Estimated